createdAt,value
2023-05-06T00:00:43.530Z,0.00
2023-05-06T00:01:43.508Z,0.00
2023-05-06T00:02:43.576Z,0.00
2023-05-06T00:03:43.783Z,0.00
2023-05-06T00:04:43.578Z,0.00
2023-05-06T00:05:43.508Z,0.00
2023-05-06T00:06:43.468Z,0.00
2023-05-06T00:07:43.455Z,0.00
2023-05-06T00:08:43.453Z,0.00
2023-05-06T00:09:43.429Z,0.00
2023-05-06T00:10:43.447Z,0.00
2023-05-06T00:11:43.404Z,0.00
2023-05-06T00:12:43.421Z,0.00
2023-05-06T00:13:43.390Z,0.00
2023-05-06T00:14:43.374Z,0.00
2023-05-06T00:15:43.363Z,0.00
2023-05-06T00:16:43.381Z,0.00
2023-05-06T00:17:43.414Z,0.00
2023-05-06T00:18:43.345Z,0.00
2023-05-06T00:19:43.325Z,0.00
2023-05-06T00:20:43.311Z,0.00
2023-05-06T00:21:43.298Z,0.00
2023-05-06T00:22:43.295Z,0.00
2023-05-06T00:23:43.273Z,0.00
2023-05-06T00:24:43.264Z,0.00
2023-05-06T00:25:43.253Z,0.00
2023-05-06T00:26:43.245Z,0.00
2023-05-06T00:27:43.230Z,0.00
2023-05-06T00:28:43.233Z,0.00
2023-05-06T00:29:43.205Z,0.00
2023-05-06T00:30:43.208Z,0.00
2023-05-06T00:31:43.209Z,0.00
2023-05-06T00:32:43.240Z,0.00
2023-05-06T00:33:43.163Z,0.00
2023-05-06T00:34:43.162Z,0.00
2023-05-06T00:35:43.147Z,0.00
2023-05-06T00:36:43.154Z,0.00
2023-05-06T00:37:43.123Z,0.00
2023-05-06T00:38:43.111Z,0.00
2023-05-06T00:39:43.100Z,0.00
2023-05-06T00:40:43.080Z,0.00
2023-05-06T00:41:43.093Z,0.00
2023-05-06T00:42:43.064Z,0.00
2023-05-06T00:43:43.079Z,0.00
2023-05-06T00:44:43.052Z,0.00
2023-05-06T00:45:43.073Z,0.00
2023-05-06T00:46:43.029Z,0.00
2023-05-06T00:47:43.049Z,0.00
2023-05-06T00:48:43.008Z,0.00
2023-05-06T00:49:43.028Z,0.00
2023-05-06T00:50:42.982Z,0.00
2023-05-06T00:51:42.972Z,0.00
2023-05-06T00:52:42.959Z,0.00
2023-05-06T00:53:42.942Z,0.00
2023-05-06T00:54:42.928Z,0.00
2023-05-06T00:55:42.932Z,0.00
2023-05-06T00:56:42.907Z,0.00
2023-05-06T00:57:42.900Z,0.00
2023-05-06T00:58:42.888Z,0.00
2023-05-06T00:59:42.886Z,0.00
2023-05-06T01:00:42.876Z,0.00
2023-05-06T01:01:42.876Z,0.00
2023-05-06T01:02:47.424Z,0.00
2023-05-06T01:03:42.938Z,0.00
2023-05-06T01:04:42.877Z,0.00
2023-05-06T01:05:42.815Z,0.00
2023-05-06T01:06:42.797Z,0.00
2023-05-06T01:07:42.800Z,0.00
2023-05-06T01:08:42.788Z,0.00
2023-05-06T01:09:42.787Z,0.00
2023-05-06T01:10:42.753Z,0.00
2023-05-06T01:11:42.749Z,0.00
2023-05-06T01:12:42.769Z,0.00
2023-05-06T01:13:42.734Z,0.00
2023-05-06T01:14:42.717Z,0.00
2023-05-06T01:15:42.703Z,0.00
2023-05-06T01:16:42.717Z,0.00
2023-05-06T01:17:42.714Z,0.00
2023-05-06T01:18:42.678Z,0.00
2023-05-06T01:19:42.658Z,0.00
2023-05-06T01:20:42.653Z,0.00
2023-05-06T01:21:42.638Z,0.00
2023-05-06T01:22:42.631Z,0.00
2023-05-06T01:23:42.626Z,0.00
2023-05-06T01:24:42.621Z,0.00
2023-05-06T01:25:42.614Z,0.00
2023-05-06T01:26:42.579Z,0.00
2023-05-06T01:27:42.582Z,0.00
2023-05-06T01:28:42.570Z,0.00
2023-05-06T01:29:42.556Z,0.00
2023-05-06T01:30:42.550Z,0.00
2023-05-06T01:31:42.531Z,0.00
2023-05-06T01:32:42.565Z,0.00
2023-05-06T01:33:42.510Z,0.00
2023-05-06T01:34:42.504Z,0.00
2023-05-06T01:35:42.517Z,0.00
2023-05-06T01:36:42.480Z,0.00
2023-05-06T01:37:42.467Z,0.00
2023-05-06T01:38:42.457Z,0.00
2023-05-06T01:39:42.438Z,0.00
2023-05-06T01:40:42.431Z,0.00
2023-05-06T01:41:42.440Z,0.00
2023-05-06T01:42:42.420Z,0.00
2023-05-06T01:43:42.386Z,0.00
2023-05-06T01:44:42.447Z,0.00
2023-05-06T01:45:42.375Z,0.00
2023-05-06T01:46:42.516Z,0.00
2023-05-06T01:47:42.421Z,0.00
2023-05-06T01:48:42.414Z,0.00
2023-05-06T01:49:42.389Z,0.00
2023-05-06T01:50:42.316Z,0.00
2023-05-06T01:51:42.311Z,0.00
2023-05-06T01:52:42.300Z,0.00
2023-05-06T01:53:42.287Z,0.00
2023-05-06T01:54:42.288Z,0.00
2023-05-06T01:55:42.274Z,0.00
2023-05-06T01:56:42.258Z,0.00
2023-05-06T01:57:42.242Z,0.00
2023-05-06T01:58:42.231Z,0.00
2023-05-06T01:59:42.229Z,0.00
2023-05-06T02:00:42.225Z,0.00
2023-05-06T02:01:42.227Z,0.00
2023-05-06T02:02:42.252Z,0.00
2023-05-06T02:03:42.273Z,0.00
2023-05-06T02:04:42.177Z,0.00
2023-05-06T02:05:42.159Z,0.00
2023-05-06T02:06:42.173Z,0.00
2023-05-06T02:07:42.122Z,0.00
2023-05-06T02:08:42.117Z,0.00
2023-05-06T02:09:42.111Z,0.00
2023-05-06T02:10:42.114Z,0.00
2023-05-06T02:11:42.081Z,0.00
2023-05-06T02:12:42.111Z,0.00
2023-05-06T02:13:42.061Z,0.00
2023-05-06T02:14:42.063Z,0.00
2023-05-06T02:15:42.040Z,0.00
2023-05-06T02:16:42.030Z,0.00
2023-05-06T02:17:42.039Z,0.00
2023-05-06T02:18:42.007Z,0.00
2023-05-06T02:19:42.037Z,0.00
2023-05-06T02:20:41.983Z,0.00
2023-05-06T02:21:41.968Z,0.00
2023-05-06T02:22:41.998Z,0.00
2023-05-06T02:23:41.956Z,0.00
2023-05-06T02:24:41.951Z,0.00
2023-05-06T02:25:41.928Z,0.00
2023-05-06T02:26:42.038Z,0.00
2023-05-06T02:27:41.913Z,0.00
2023-05-06T02:28:41.909Z,0.00
2023-05-06T02:29:41.885Z,0.00
2023-05-06T02:30:41.880Z,0.00
2023-05-06T02:31:41.927Z,0.00
2023-05-06T02:32:41.882Z,0.00
2023-05-06T02:33:41.855Z,0.00
2023-05-06T02:34:41.836Z,0.00
2023-05-06T02:35:41.810Z,0.00
2023-05-06T02:36:41.806Z,0.00
2023-05-06T02:37:41.799Z,0.00
2023-05-06T02:38:41.810Z,0.00
2023-05-06T02:39:41.781Z,0.00
2023-05-06T02:40:41.765Z,0.00
2023-05-06T02:41:41.746Z,0.00
2023-05-06T02:42:41.793Z,0.00
2023-05-06T02:43:41.730Z,0.00
2023-05-06T02:44:41.731Z,0.00
2023-05-06T02:45:41.724Z,0.00
2023-05-06T02:46:41.697Z,0.00
2023-05-06T02:47:41.744Z,0.00
2023-05-06T02:48:41.670Z,0.00
2023-05-06T02:49:41.657Z,0.00
2023-05-06T02:50:41.649Z,0.00
2023-05-06T02:51:41.649Z,0.00
2023-05-06T02:52:41.638Z,0.00
2023-05-06T02:53:41.612Z,0.00
2023-05-06T02:54:41.612Z,0.00
2023-05-06T02:55:41.590Z,0.00
2023-05-06T02:56:41.596Z,0.00
2023-05-06T02:57:41.576Z,0.00
2023-05-06T02:58:41.580Z,0.00
2023-05-06T02:59:41.544Z,0.00
2023-05-06T03:00:41.544Z,0.00
2023-05-06T03:01:41.556Z,0.00
2023-05-06T03:02:41.553Z,0.00
2023-05-06T03:03:41.500Z,0.00
2023-05-06T03:04:41.503Z,0.00
2023-05-06T03:05:41.481Z,0.00
2023-05-06T03:06:41.488Z,0.00
2023-05-06T03:07:41.477Z,0.00
2023-05-06T03:08:41.462Z,0.00
2023-05-06T03:09:41.439Z,0.00
2023-05-06T03:10:41.434Z,0.00
2023-05-06T03:11:41.421Z,0.00
2023-05-06T03:12:41.425Z,0.00
2023-05-06T03:13:41.388Z,0.00
2023-05-06T03:14:41.398Z,0.00
2023-05-06T03:15:41.381Z,0.00
2023-05-06T03:16:41.425Z,0.00
2023-05-06T03:17:41.480Z,0.00
2023-05-06T03:18:41.345Z,0.00
2023-05-06T03:19:41.324Z,0.00
2023-05-06T03:20:41.327Z,0.00
2023-05-06T03:21:41.390Z,0.00
2023-05-06T03:22:41.307Z,0.00
2023-05-06T03:23:41.275Z,4.00
2023-05-06T03:24:41.280Z,4.00
2023-05-06T03:25:41.278Z,4.00
2023-05-06T03:26:41.256Z,0.00
2023-05-06T03:27:41.233Z,4.00
2023-05-06T03:28:41.229Z,4.00
2023-05-06T03:29:41.233Z,4.00
2023-05-06T03:30:41.204Z,4.00
2023-05-06T03:31:41.201Z,4.00
2023-05-06T03:32:41.210Z,4.00
2023-05-06T03:33:41.173Z,8.00
2023-05-06T03:34:41.180Z,8.00
2023-05-06T03:35:41.160Z,12.00
2023-05-06T03:36:41.135Z,12.00
2023-05-06T03:37:41.128Z,12.00
2023-05-06T03:38:41.122Z,12.00
2023-05-06T03:39:41.122Z,16.00
2023-05-06T03:40:41.087Z,16.00
2023-05-06T03:41:41.080Z,20.00
2023-05-06T03:42:41.087Z,20.00
2023-05-06T03:43:41.077Z,24.00
2023-05-06T03:44:41.047Z,24.00
2023-05-06T03:45:41.040Z,28.00
2023-05-06T03:46:41.092Z,32.00
2023-05-06T03:47:41.052Z,32.00
2023-05-06T03:48:41.010Z,36.00
2023-05-06T03:49:40.992Z,40.00
2023-05-06T03:50:40.991Z,44.00
2023-05-06T03:51:40.975Z,48.00
2023-05-06T03:52:40.965Z,52.00
2023-05-06T03:53:40.962Z,56.00
2023-05-06T03:54:40.934Z,60.00
2023-05-06T03:55:40.924Z,68.00
2023-05-06T03:56:40.919Z,72.00
2023-05-06T03:57:40.912Z,76.00
2023-05-06T03:58:40.903Z,80.00
2023-05-06T03:59:40.884Z,88.00
2023-05-06T04:00:40.863Z,92.00
2023-05-06T04:01:40.890Z,96.00
2023-05-06T04:02:41.033Z,100.00
2023-05-06T04:03:40.964Z,108.00
2023-05-06T04:04:40.821Z,112.00
2023-05-06T04:05:40.821Z,120.00
2023-05-06T04:06:40.800Z,124.00
2023-05-06T04:07:40.807Z,128.00
2023-05-06T04:08:40.788Z,132.00
2023-05-06T04:09:40.766Z,140.00
2023-05-06T04:10:40.757Z,148.00
2023-05-06T04:11:40.760Z,160.00
2023-05-06T04:12:40.867Z,172.00
2023-05-06T04:13:40.727Z,188.00
2023-05-06T04:14:40.716Z,200.00
2023-05-06T04:15:40.709Z,216.00
2023-05-06T04:16:40.749Z,228.00
2023-05-06T04:17:40.714Z,240.00
2023-05-06T04:18:40.672Z,248.00
2023-05-06T04:19:40.657Z,248.00
2023-05-06T04:20:40.649Z,256.00
2023-05-06T04:21:40.647Z,256.00
2023-05-06T04:22:40.620Z,256.00
2023-05-06T04:23:40.620Z,268.00
2023-05-06T04:24:40.595Z,280.00
2023-05-06T04:25:40.605Z,304.00
2023-05-06T04:26:40.610Z,308.00
2023-05-06T04:27:40.571Z,312.00
2023-05-06T04:28:40.549Z,328.00
2023-05-06T04:29:40.548Z,332.00
2023-05-06T04:30:40.544Z,328.00
2023-05-06T04:31:40.592Z,352.00
2023-05-06T04:32:40.544Z,364.00
2023-05-06T04:33:40.507Z,360.00
2023-05-06T04:34:40.486Z,384.00
2023-05-06T04:35:40.494Z,408.00
2023-05-06T04:36:40.800Z,440.00
2023-05-06T04:37:40.462Z,468.00
2023-05-06T04:38:40.445Z,476.00
2023-05-06T04:39:40.446Z,488.00
2023-05-06T04:40:40.446Z,504.00
2023-05-06T04:41:40.415Z,516.00
2023-05-06T04:42:40.408Z,520.00
2023-05-06T04:43:40.396Z,520.00
2023-05-06T04:44:40.385Z,524.00
2023-05-06T04:45:40.446Z,540.00
2023-05-06T04:46:40.360Z,552.00
2023-05-06T04:47:40.422Z,576.00
2023-05-06T04:48:40.365Z,616.00
2023-05-06T04:49:40.343Z,640.00
2023-05-06T04:50:40.332Z,660.00
2023-05-06T04:51:40.309Z,672.00
2023-05-06T04:52:40.331Z,676.00
2023-05-06T04:53:40.300Z,688.00
2023-05-06T04:54:40.334Z,708.00
2023-05-06T04:55:40.276Z,716.00
2023-05-06T04:56:40.264Z,712.00
2023-05-06T04:57:40.246Z,720.00
2023-05-06T04:58:40.247Z,724.00
2023-05-06T04:59:40.243Z,728.00
2023-05-06T05:00:40.220Z,748.00
2023-05-06T05:01:40.253Z,824.00
2023-05-06T05:02:40.298Z,840.00
2023-05-06T05:03:40.227Z,864.00
2023-05-06T05:04:40.161Z,824.00
2023-05-06T05:05:40.156Z,828.00
2023-05-06T05:06:40.139Z,836.00
2023-05-06T05:07:40.187Z,860.00
2023-05-06T05:08:40.118Z,868.00
2023-05-06T05:09:40.115Z,892.00
2023-05-06T05:10:40.094Z,920.00
2023-05-06T05:11:40.096Z,932.00
2023-05-06T05:12:40.126Z,980.00
2023-05-06T05:13:40.067Z,1020.00
2023-05-06T05:14:40.131Z,992.00
2023-05-06T05:15:40.139Z,1024.00
2023-05-06T05:16:40.125Z,1052.00
2023-05-06T05:17:40.044Z,1092.00
2023-05-06T05:18:40.011Z,1076.00
2023-05-06T05:19:40.002Z,1100.00
2023-05-06T05:20:39.988Z,1100.00
2023-05-06T05:21:39.992Z,1108.00
2023-05-06T05:22:39.964Z,1184.00
2023-05-06T05:23:39.958Z,1200.00
2023-05-06T05:24:39.941Z,1132.00
2023-05-06T05:25:39.944Z,1088.00
2023-05-06T05:26:39.932Z,1136.00
2023-05-06T05:27:39.909Z,1168.00
2023-05-06T05:28:39.902Z,1232.00
2023-05-06T05:29:39.889Z,1292.00
2023-05-06T05:30:39.873Z,1356.00
2023-05-06T05:31:39.969Z,1404.00
2023-05-06T05:32:39.901Z,1440.00
2023-05-06T05:33:39.943Z,1424.00
2023-05-06T05:34:39.830Z,1464.00
2023-05-06T05:35:39.836Z,1408.00
2023-05-06T05:36:39.823Z,1328.00
2023-05-06T05:37:39.823Z,1348.00
2023-05-06T05:38:39.792Z,1364.00
2023-05-06T05:39:39.787Z,1360.00
2023-05-06T05:40:39.775Z,1472.00
2023-05-06T05:41:39.758Z,1488.00
2023-05-06T05:42:39.740Z,1472.00
2023-05-06T05:43:39.734Z,1476.00
2023-05-06T05:44:39.730Z,1568.00
2023-05-06T05:45:39.723Z,1616.00
2023-05-06T05:46:39.728Z,1600.00
2023-05-06T05:47:39.761Z,1644.00
2023-05-06T05:48:39.754Z,1716.00
2023-05-06T05:49:39.668Z,1676.00
2023-05-06T05:50:39.672Z,1668.00
2023-05-06T05:51:39.647Z,1660.00
2023-05-06T05:52:39.665Z,1620.00
2023-05-06T05:53:39.618Z,1596.00
2023-05-06T05:54:39.633Z,1620.00
2023-05-06T05:55:39.609Z,1624.00
2023-05-06T05:56:39.595Z,1640.00
2023-05-06T05:57:39.593Z,1604.00
2023-05-06T05:58:39.590Z,1608.00
2023-05-06T05:59:39.568Z,1696.00
2023-05-06T06:00:39.548Z,1696.00
2023-05-06T06:01:39.534Z,1728.00
2023-05-06T06:02:39.661Z,1784.00
2023-05-06T06:03:39.709Z,1712.00
2023-05-06T06:04:39.587Z,1856.00
2023-05-06T06:05:39.486Z,1972.00
2023-05-06T06:06:39.475Z,2008.00
2023-05-06T06:07:39.482Z,1936.00
2023-05-06T06:08:39.453Z,1996.00
2023-05-06T06:09:39.454Z,2116.00
2023-05-06T06:10:39.434Z,2036.00
2023-05-06T06:11:39.417Z,2036.00
2023-05-06T06:12:39.425Z,2040.00
2023-05-06T06:13:39.411Z,1924.00
2023-05-06T06:14:39.439Z,1832.00
2023-05-06T06:15:39.373Z,1788.00
2023-05-06T06:16:39.435Z,1772.00
2023-05-06T06:17:39.395Z,1892.00
2023-05-06T06:18:39.365Z,1920.00
2023-05-06T06:19:39.325Z,2036.00
2023-05-06T06:20:39.333Z,2104.00
2023-05-06T06:21:39.302Z,2248.00
2023-05-06T06:22:39.306Z,2284.00
2023-05-06T06:23:39.294Z,2120.00
2023-05-06T06:24:39.280Z,2112.00
2023-05-06T06:25:39.272Z,2152.00
2023-05-06T06:26:39.255Z,2200.00
2023-05-06T06:27:39.259Z,2172.00
2023-05-06T06:28:39.243Z,2228.00
2023-05-06T06:29:39.220Z,2396.00
2023-05-06T06:30:39.210Z,2456.00
2023-05-06T06:31:40.698Z,2444.00
2023-05-06T06:32:39.200Z,2420.00
2023-05-06T06:33:39.181Z,2776.00
2023-05-06T06:34:39.159Z,2896.00
2023-05-06T06:35:39.161Z,2888.00
2023-05-06T06:36:39.136Z,2936.00
2023-05-06T06:37:39.144Z,2920.00
2023-05-06T06:38:39.117Z,2740.00
2023-05-06T06:39:39.130Z,2544.00
2023-05-06T06:40:39.109Z,2472.00
2023-05-06T06:41:39.098Z,2600.00
2023-05-06T06:42:39.083Z,2516.00
2023-05-06T06:43:39.064Z,2424.00
2023-05-06T06:44:39.055Z,2308.00
2023-05-06T06:45:39.089Z,2236.00
2023-05-06T06:46:39.043Z,2272.00
2023-05-06T06:47:39.036Z,2336.00
2023-05-06T06:48:39.007Z,2416.00
2023-05-06T06:49:39.006Z,2448.00
2023-05-06T06:50:38.994Z,2576.00
2023-05-06T06:51:38.992Z,2632.00
2023-05-06T06:52:38.961Z,2652.00
2023-05-06T06:53:38.957Z,2900.00
2023-05-06T06:54:38.944Z,2848.00
2023-05-06T06:55:38.937Z,2824.00
2023-05-06T06:56:38.931Z,2824.00
2023-05-06T06:57:38.916Z,2684.00
2023-05-06T06:58:38.890Z,2696.00
2023-05-06T06:59:38.898Z,2768.00
2023-05-06T07:00:38.896Z,2736.00
2023-05-06T07:01:38.970Z,2668.00
2023-05-06T07:02:38.887Z,2640.00
2023-05-06T07:03:38.853Z,2624.00
2023-05-06T07:04:39.029Z,2440.00
2023-05-06T07:05:38.850Z,2320.00
2023-05-06T07:06:38.832Z,2584.00
2023-05-06T07:07:38.801Z,2548.00
2023-05-06T07:08:38.816Z,2532.00
2023-05-06T07:09:40.100Z,2516.00
2023-05-06T07:10:38.789Z,2480.00
2023-05-06T07:11:38.755Z,2472.00
2023-05-06T07:12:38.831Z,2400.00
2023-05-06T07:13:38.745Z,2456.00
2023-05-06T07:14:38.733Z,2488.00
2023-05-06T07:15:38.734Z,2412.00
2023-05-06T07:16:38.724Z,2440.00
2023-05-06T07:17:38.743Z,2432.00
2023-05-06T07:18:38.673Z,2364.00
2023-05-06T07:19:38.686Z,2416.00
2023-05-06T07:20:38.664Z,2632.00
2023-05-06T07:21:38.647Z,2800.00
2023-05-06T07:22:38.631Z,2884.00
2023-05-06T07:23:38.635Z,2824.00
2023-05-06T07:24:38.618Z,2900.00
2023-05-06T07:25:38.622Z,2940.00
2023-05-06T07:26:38.608Z,3144.00
2023-05-06T07:27:38.576Z,3092.00
2023-05-06T07:28:38.576Z,3204.00
2023-05-06T07:29:38.572Z,3228.00
2023-05-06T07:30:38.574Z,3444.00
2023-05-06T07:31:38.675Z,3444.00
2023-05-06T07:32:38.592Z,3484.00
2023-05-06T07:33:38.548Z,3312.00
2023-05-06T07:34:38.547Z,3176.00
2023-05-06T07:35:38.530Z,3228.00
2023-05-06T07:36:40.028Z,3080.00
2023-05-06T07:37:38.488Z,2812.00
2023-05-06T07:38:38.465Z,2732.00
2023-05-06T07:39:38.456Z,2632.00
2023-05-06T07:40:38.433Z,2712.00
2023-05-06T07:41:38.425Z,3216.00
2023-05-06T07:42:38.767Z,3460.00
2023-05-06T07:43:38.414Z,3764.00
2023-05-06T07:44:38.392Z,4236.00
2023-05-06T07:45:38.388Z,4544.00
2023-05-06T07:46:38.540Z,4312.00
2023-05-06T07:47:38.442Z,3776.00
2023-05-06T07:48:38.356Z,3356.00
2023-05-06T07:49:38.339Z,3068.00
2023-05-06T07:50:38.324Z,2896.00
2023-05-06T07:51:38.314Z,2836.00
2023-05-06T07:52:38.312Z,2780.00
2023-05-06T07:53:38.290Z,2888.00
2023-05-06T07:54:38.276Z,3168.00
2023-05-06T07:55:38.267Z,3680.00
2023-05-06T07:56:38.255Z,3928.00
2023-05-06T07:57:38.267Z,4008.00
2023-05-06T07:58:38.244Z,3724.00
2023-05-06T07:59:38.224Z,3444.00
2023-05-06T08:00:38.210Z,3524.00
2023-05-06T08:01:38.218Z,3820.00
2023-05-06T08:02:38.287Z,4020.00
2023-05-06T08:03:38.395Z,3824.00
2023-05-06T08:04:38.193Z,3664.00
2023-05-06T08:05:38.161Z,3888.00
2023-05-06T08:06:38.158Z,4400.00
2023-05-06T08:07:38.136Z,4644.00
2023-05-06T08:08:38.122Z,4488.00
2023-05-06T08:09:38.141Z,4160.00
2023-05-06T08:10:38.097Z,3728.00
2023-05-06T08:11:38.102Z,3560.00
2023-05-06T08:12:38.300Z,3556.00
2023-05-06T08:13:38.075Z,3584.00
2023-05-06T08:14:38.062Z,3692.00
2023-05-06T08:15:38.058Z,3556.00
2023-05-06T08:16:38.114Z,3692.00
2023-05-06T08:17:38.076Z,4280.00
2023-05-06T08:18:38.009Z,4772.00
2023-05-06T08:19:37.998Z,5204.00
2023-05-06T08:20:38.001Z,5312.00
2023-05-06T08:21:38.000Z,5388.00
2023-05-06T08:22:37.967Z,6028.00
2023-05-06T08:23:37.967Z,4912.00
2023-05-06T08:24:37.947Z,4416.00
2023-05-06T08:25:37.956Z,4344.00
2023-05-06T08:26:37.928Z,4260.00
2023-05-06T08:27:37.918Z,4300.00
2023-05-06T08:28:37.907Z,4512.00
2023-05-06T08:29:37.907Z,4940.00
2023-05-06T08:30:37.896Z,5540.00
2023-05-06T08:31:37.933Z,5772.00
2023-05-06T08:32:37.894Z,5228.00
2023-05-06T08:33:37.857Z,5248.00
2023-05-06T08:34:37.851Z,5392.00
2023-05-06T08:35:37.848Z,5204.00
2023-05-06T08:36:37.827Z,4464.00
2023-05-06T08:37:37.807Z,4468.00
2023-05-06T08:38:37.794Z,4872.00
2023-05-06T08:39:37.792Z,5096.00
2023-05-06T08:40:37.771Z,5092.00
2023-05-06T08:41:37.765Z,5300.00
2023-05-06T08:42:37.749Z,5580.00
2023-05-06T08:43:37.740Z,5716.00
2023-05-06T08:44:37.736Z,4964.00
2023-05-06T08:45:37.746Z,5232.00
2023-05-06T08:46:37.701Z,5316.00
2023-05-06T08:47:37.749Z,5264.00
2023-05-06T08:48:37.692Z,4976.00
2023-05-06T08:49:37.684Z,5496.00
2023-05-06T08:50:37.664Z,5932.00
2023-05-06T08:51:37.650Z,6332.00
2023-05-06T08:52:37.639Z,7832.00
2023-05-06T08:53:37.643Z,6412.00
2023-05-06T08:54:37.613Z,5388.00
2023-05-06T08:55:37.644Z,5464.00
2023-05-06T08:56:37.612Z,6844.00
2023-05-06T08:57:37.588Z,5248.00
2023-05-06T08:58:37.578Z,5260.00
2023-05-06T08:59:37.561Z,5340.00
2023-05-06T09:00:37.545Z,5488.00
2023-05-06T09:01:37.692Z,6128.00
2023-05-06T09:02:38.390Z,7600.00
2023-05-06T09:03:37.540Z,7192.00
2023-05-06T09:04:37.501Z,5336.00
2023-05-06T09:05:37.494Z,4880.00
2023-05-06T09:06:37.515Z,4832.00
2023-05-06T09:07:37.491Z,6048.00
2023-05-06T09:08:37.462Z,5184.00
2023-05-06T09:09:37.462Z,6392.00
2023-05-06T09:10:37.440Z,5192.00
2023-05-06T09:11:37.432Z,4792.00
2023-05-06T09:12:37.433Z,5648.00
2023-05-06T09:13:37.406Z,5004.00
2023-05-06T09:14:37.387Z,4888.00
2023-05-06T09:15:37.383Z,4032.00
2023-05-06T09:16:37.408Z,4072.00
2023-05-06T09:17:37.422Z,5520.00
2023-05-06T09:18:37.354Z,4852.00
2023-05-06T09:19:37.339Z,4936.00
2023-05-06T09:20:37.324Z,5776.00
2023-05-06T09:21:37.331Z,4480.00
2023-05-06T09:22:37.304Z,4396.00
2023-05-06T09:23:37.321Z,4332.00
2023-05-06T09:24:37.281Z,4576.00
2023-05-06T09:25:37.274Z,4712.00
2023-05-06T09:26:37.265Z,5200.00
2023-05-06T09:27:37.255Z,5068.00
2023-05-06T09:28:37.244Z,5000.00
2023-05-06T09:29:37.234Z,3904.00
2023-05-06T09:30:37.222Z,3356.00
2023-05-06T09:31:37.377Z,3088.00
2023-05-06T09:32:40.050Z,3036.00
2023-05-06T09:33:37.183Z,3204.00
2023-05-06T09:34:37.178Z,4876.00
2023-05-06T09:35:37.178Z,5140.00
2023-05-06T09:36:37.151Z,5568.00
2023-05-06T09:37:37.134Z,5196.00
2023-05-06T09:38:37.132Z,4756.00
2023-05-06T09:39:37.122Z,3688.00
2023-05-06T09:40:37.115Z,3648.00
2023-05-06T09:41:37.093Z,3704.00
2023-05-06T09:42:37.085Z,4456.00
2023-05-06T09:43:37.068Z,3180.00
2023-05-06T09:44:37.078Z,3204.00
2023-05-06T09:45:37.075Z,3816.00
2023-05-06T09:46:37.093Z,3764.00
2023-05-06T09:47:37.092Z,3620.00
2023-05-06T09:48:37.017Z,3884.00
2023-05-06T09:49:37.022Z,4020.00
2023-05-06T09:50:36.997Z,3864.00
2023-05-06T09:51:36.980Z,3704.00
2023-05-06T09:52:36.988Z,3504.00
2023-05-06T09:53:36.976Z,2988.00
2023-05-06T09:54:36.979Z,3224.00
2023-05-06T09:55:36.947Z,3336.00
2023-05-06T09:56:36.985Z,3232.00
2023-05-06T09:57:37.073Z,3212.00
2023-05-06T09:58:36.983Z,3212.00
2023-05-06T09:59:36.916Z,3172.00
2023-05-06T10:00:36.893Z,3096.00
2023-05-06T10:01:37.827Z,3008.00
2023-05-06T10:02:37.082Z,2956.00
2023-05-06T10:03:36.986Z,2908.00
2023-05-06T10:04:37.090Z,2908.00
2023-05-06T10:05:36.861Z,2852.00
2023-05-06T10:06:36.936Z,2904.00
2023-05-06T10:07:36.819Z,2884.00
2023-05-06T10:08:36.798Z,2872.00
2023-05-06T10:09:36.787Z,2848.00
2023-05-06T10:10:36.769Z,2824.00
2023-05-06T10:11:36.971Z,2956.00
2023-05-06T10:12:36.804Z,2956.00
2023-05-06T10:13:36.749Z,2944.00
2023-05-06T10:14:36.725Z,2896.00
2023-05-06T10:15:36.718Z,2832.00
2023-05-06T10:16:36.897Z,2796.00
2023-05-06T10:17:36.740Z,2792.00
2023-05-06T10:18:36.705Z,2816.00
2023-05-06T10:19:36.669Z,2816.00
2023-05-06T10:20:36.667Z,2808.00
2023-05-06T10:21:36.660Z,2784.00
2023-05-06T10:22:36.661Z,2768.00
2023-05-06T10:23:36.635Z,2760.00
2023-05-06T10:24:36.614Z,2708.00
2023-05-06T10:25:36.626Z,2672.00
2023-05-06T10:26:36.590Z,2636.00
2023-05-06T10:27:36.661Z,2596.00
2023-05-06T10:28:36.567Z,2636.00
2023-05-06T10:29:36.624Z,2332.00
2023-05-06T10:30:36.547Z,2084.00
2023-05-06T10:31:36.633Z,2232.00
2023-05-06T10:32:36.596Z,2528.00
2023-05-06T10:33:36.513Z,2572.00
2023-05-06T10:34:36.493Z,2600.00
2023-05-06T10:35:36.490Z,2616.00
2023-05-06T10:36:36.488Z,2584.00
2023-05-06T10:37:36.470Z,2564.00
2023-05-06T10:38:36.451Z,2504.00
2023-05-06T10:39:36.448Z,2464.00
2023-05-06T10:40:36.439Z,2516.00
2023-05-06T10:41:36.433Z,2524.00
2023-05-06T10:42:36.404Z,2516.00
2023-05-06T10:43:36.404Z,2576.00
2023-05-06T10:44:36.382Z,2552.00
2023-05-06T10:45:36.429Z,2552.00
2023-05-06T10:46:36.370Z,2552.00
2023-05-06T10:47:36.372Z,2544.00
2023-05-06T10:48:36.341Z,2544.00
2023-05-06T10:49:36.334Z,2532.00
2023-05-06T10:50:36.334Z,2532.00
2023-05-06T10:51:36.399Z,2548.00
2023-05-06T10:52:36.289Z,2600.00
2023-05-06T10:53:36.321Z,2712.00
2023-05-06T10:54:36.268Z,2736.00
2023-05-06T10:55:36.274Z,2692.00
2023-05-06T10:56:36.299Z,2824.00
2023-05-06T10:57:36.240Z,2840.00
2023-05-06T10:58:36.231Z,2744.00
2023-05-06T10:59:36.216Z,2636.00
2023-05-06T11:00:36.206Z,2480.00
2023-05-06T11:01:36.387Z,2448.00
2023-05-06T11:02:36.248Z,2532.00
2023-05-06T11:03:36.271Z,2608.00
2023-05-06T11:04:36.173Z,2712.00
2023-05-06T11:05:36.163Z,2848.00
2023-05-06T11:06:36.138Z,2996.00
2023-05-06T11:07:36.131Z,3032.00
2023-05-06T11:08:36.114Z,2976.00
2023-05-06T11:09:36.120Z,2980.00
2023-05-06T11:10:36.094Z,2920.00
2023-05-06T11:11:36.090Z,2824.00
2023-05-06T11:12:36.128Z,2776.00
2023-05-06T11:13:36.066Z,2752.00
2023-05-06T11:14:36.104Z,2760.00
2023-05-06T11:15:36.044Z,2732.00
2023-05-06T11:16:38.162Z,2700.00
2023-05-06T11:17:36.044Z,2660.00
2023-05-06T11:18:36.018Z,2608.00
2023-05-06T11:19:36.013Z,2552.00
2023-05-06T11:20:35.983Z,2484.00
2023-05-06T11:21:35.980Z,2408.00
2023-05-06T11:22:35.967Z,2332.00
2023-05-06T11:23:35.967Z,2272.00
2023-05-06T11:24:35.941Z,2272.00
2023-05-06T11:25:35.935Z,2324.00
2023-05-06T11:26:35.919Z,2368.00
2023-05-06T11:27:35.911Z,2348.00
2023-05-06T11:28:35.906Z,2316.00
2023-05-06T11:29:35.895Z,2192.00
2023-05-06T11:30:35.873Z,2244.00
2023-05-06T11:31:35.909Z,2244.00
2023-05-06T11:32:35.873Z,2316.00
2023-05-06T11:33:35.856Z,2324.00
2023-05-06T11:34:35.831Z,2372.00
2023-05-06T11:35:35.839Z,2536.00
2023-05-06T11:36:35.809Z,2588.00
2023-05-06T11:37:35.870Z,2532.00
2023-05-06T11:38:35.788Z,2484.00
2023-05-06T11:39:40.341Z,2560.00
2023-05-06T11:40:35.769Z,2604.00
2023-05-06T11:41:35.761Z,2528.00
2023-05-06T11:42:35.754Z,2468.00
2023-05-06T11:43:35.756Z,2468.00
2023-05-06T11:44:35.762Z,2496.00
2023-05-06T11:45:35.714Z,2496.00
2023-05-06T11:46:35.728Z,2504.00
2023-05-06T11:47:35.757Z,2484.00
2023-05-06T11:48:35.680Z,2512.00
2023-05-06T11:49:36.875Z,2564.00
2023-05-06T11:50:35.662Z,2660.00
2023-05-06T11:51:35.671Z,2668.00
2023-05-06T11:52:35.635Z,2548.00
2023-05-06T11:53:35.630Z,2488.00
2023-05-06T11:54:35.638Z,2384.00
2023-05-06T11:55:35.604Z,2360.00
2023-05-06T11:56:35.608Z,2400.00
2023-05-06T11:57:35.583Z,1984.00
2023-05-06T11:58:35.588Z,1984.00
2023-05-06T11:59:35.560Z,1996.00
2023-05-06T12:00:35.557Z,2340.00
2023-05-06T12:01:35.546Z,2572.00
2023-05-06T12:02:35.624Z,2684.00
2023-05-06T12:03:35.644Z,2844.00
2023-05-06T12:04:35.580Z,2772.00
2023-05-06T12:05:35.510Z,2856.00
2023-05-06T12:06:35.498Z,2888.00
2023-05-06T12:07:35.469Z,2892.00
2023-05-06T12:08:35.464Z,2416.00
2023-05-06T12:09:35.446Z,2516.00
2023-05-06T12:10:35.440Z,2568.00
2023-05-06T12:11:35.429Z,2596.00
2023-05-06T12:12:35.436Z,3004.00
2023-05-06T12:13:35.409Z,2816.00
2023-05-06T12:14:35.416Z,3176.00
2023-05-06T12:15:35.388Z,3008.00
2023-05-06T12:16:35.427Z,3116.00
2023-05-06T12:17:35.371Z,3124.00
2023-05-06T12:18:35.349Z,3072.00
2023-05-06T12:19:35.341Z,3040.00
2023-05-06T12:20:35.336Z,3080.00
2023-05-06T12:21:35.311Z,3124.00
2023-05-06T12:22:35.296Z,3092.00
2023-05-06T12:23:35.320Z,3028.00
2023-05-06T12:24:35.285Z,2912.00
2023-05-06T12:25:35.294Z,2900.00
2023-05-06T12:26:35.258Z,2888.00
2023-05-06T12:27:35.285Z,2836.00
2023-05-06T12:28:35.259Z,2852.00
2023-05-06T12:29:35.290Z,2952.00